This is the latest recevied weather packets stored in our database for station/object VY2CRA-4. If no packets are shown the sender has not sent any weather packets the latest 1 day(s).
| Time | Temp. | Humidity | Pressure | Rain* | Wind** | Luminosity | Snow |
|---|---|---|---|---|---|---|---|
| 1778114923 | 23.33° C | 27% | 1010.2 hPa | 0 mm | - | - | - |
| 1778113722 | 24.44° C | 23% | 1009.9 hPa | 0 mm | - | - | - |
| 1778112521 | 26.11° C | 19% | 1009.7 hPa | 0 mm | - | - | - |
| 1778111320 | 28.33° C | 13% | 1009.4 hPa | 0 mm | - | - | - |
| 1778108920 | 22.78° C | 28% | 1009.5 hPa | 0 mm | - | - | - |
| 1778106518 | 23.89° C | 24% | 1009.2 hPa | 0 mm | - | - | - |
| 1778101713 | 26.11° C | 17% | 1008.9 hPa | 0 mm | - | - | - |
| 1778095708 | 28.33° C | 12% | 1008.9 hPa | 0 mm | - | - | - |
| 1778093306 | 29.44° C | 12% | 1009.3 hPa | 0 mm | - | - | - |
| 1778092105 | 29.44° C | 12% | 1008.9 hPa | 0 mm | - | - | - |
| 1778089703 | 28.89° C | 14% | 1009.3 hPa | 0 mm | - | - | - |
| 1778088504 | 28.33° C | 16% | 1009.2 hPa | 0 mm | - | - | - |
| 1778086102 | 28.33° C | 16% | 1009.6 hPa | 0 mm | - | - | - |
| 1778084901 | 28.89° C | 15% | 1009.6 hPa | 0 mm | - | - | - |
| 1778083700 | 29.44° C | 14% | 1009.4 hPa | 0 mm | - | - | - |
| 1778080096 | 30.56° C | 12% | 1010 hPa | 0 mm | - | - | - |
| 1778076493 | 28.33° C | 17% | 1010.6 hPa | 0 mm | - | - | - |
| 1778075292 | 28.33° C | 16% | 1010.4 hPa | 0 mm | - | - | - |
| 1778074091 | 29.44° C | 14% | 1010.5 hPa | 0 mm | - | - | - |
| 1778066887 | 30° C | 14% | 1009.3 hPa | 0 mm | - | - | - |
| 1778062082 | 17.22° C | 52% | 1009.4 hPa | 0 mm | - | - | - |
| 1778059680 | 16.11° C | 53% | 1009.1 hPa | 0 mm | - | - | - |
| 1778058479 | 16.11° C | 53% | 1008.7 hPa | 0 mm | - | - | - |
| 1778057278 | 16.11° C | 52% | 1008.7 hPa | 0 mm | - | - | - |
| 1778056077 | 16.11° C | 52% | 1008.7 hPa | 0 mm | - | - | - |
* Rain since midnight (hover to see other rain measurements)
** Current wind speed in m/s (hover to see current wind gust speed)